Flight Track Log - Related Links

Times and Time Zones

All times are in EDT time to prevent confusion due to time zone crossing. See the N2270L flight status page for this flight to view local times or setup timezone preferences in your user account.

Time Position Orientation Groundspeed Altitude Reporting Facility
EDT Latitude Longitude Course Direction KTS MPH feet Rate Location/Type
Sun 10:19:13 AM 44.9817 -87.0322 144° Southeast 118 136 7,800  Level Minneapolis Center
Sun 10:20:14 AM 44.9469 -86.9961 144° Southeast 126 145 8,700 585 Climbing Minneapolis Center
Sun 10:21:16 AM 44.9178 -86.9653 143° Southeast 130 150 9,000 194 Climbing Minneapolis Center
Sun 10:22:18 AM 44.8814 -86.9289 145° Southeast 149 171 9,100  Climbing Minneapolis Center
Sun 10:23:20 AM 44.8394 -86.8922 148° Southeast 169 194 9,000 -44 Descending Minneapolis Center
Sun 10:24:33 AM 44.8008 -86.8494 142° Southeast 177 204 9,000  Level Minneapolis Center
Sun 10:25:36 AM 44.7564 -86.7939 138° Southeast 179 206 9,000  Level Minneapolis Center
Sun 10:26:37 AM 44.7139 -86.7386 137° Southeast 176 203 9,000 -49 Level Minneapolis Center
Sun 10:27:39 AM 44.6819 -86.6869 131° Southeast 175 201 8,900 -48 Descending Minneapolis Center
Sun 10:28:41 AM 44.6517 -86.6328 128° Southeast 178 205 8,900  Level Minneapolis Center
Sun 10:29:43 AM 44.6236 -86.5775 125° Southeast 176 203 8,900  Level Minneapolis Center
Sun 10:30:57 AM 44.5936 -86.5231 128° Southeast 177 204 8,900  Level Minneapolis Center
Sun 10:31:59 AM 44.5583 -86.4564 127° Southeast 178 205 8,900  Level Minneapolis Center
Sun 10:33:01 AM 44.5231 -86.3922 128° Southeast 176 203 8,900  Level Minneapolis Center
Sun 10:34:03 AM 44.4900 -86.3428 133° Southeast 175 201 8,900  Level Minneapolis Center
Sun 10:35:05 AM 44.4556 -86.2956 136° Southeast 175 201 8,900  Level Minneapolis Center
Sun 10:36:07 AM 44.4253 -86.2397 127° Southeast 179 206 8,900  Level Minneapolis Center
Sun 10:37:09 AM 44.3964 -86.1850 126° Southeast 177 204 8,900  Level Minneapolis Center
Sun 10:38:10 AM 44.3719 -86.1414 128° Southeast 177 204 8,900  Level Minneapolis Center
Sun 10:39:12 AM 44.3269 -86.0689 131° Southeast 177 204 8,900  Level Minneapolis Center
Sun 10:40:14 AM 44.3000 -86.0275 132° Southeast 180 207 8,900  Level Minneapolis Center
Sun 10:41:16 AM 44.2600 -85.9650 132° Southeast 180 207 8,900  Level Minneapolis Center
Sun 10:42:18 AM 44.2286 -85.9122 130° Southeast 179 206 8,900  Level Minneapolis Center
Sun 10:43:21 AM 44.1967 -85.8597 130° Southeast 177 204 8,900  Level Minneapolis Center
Sun 10:44:23 AM 44.1572 -85.7933 130° Southeast 184 212 8,900  Level Minneapolis Center
Sun 10:45:25 AM 44.1253 -85.7400 130° Southeast 181 208 8,900  Level Minneapolis Center
Sun 10:46:27 AM 44.0950 -85.6856 128° Southeast 179 206 8,900  Level Minneapolis Center
Sun 10:47:29 AM 44.0614 -85.6294 130° Southeast 181 208 8,900 48 Level Minneapolis Center
Sun 10:48:31 AM 44.0289 -85.5744 129° Southeast 182 209 9,000 48 Climbing Minneapolis Center
Sun 10:49:33 AM 43.9947 -85.5247 134° Southeast 181 208 9,000  Level Minneapolis Center
Sun 10:50:35 AM 43.9614 -85.4728 132° Southeast 180 207 9,000  Level Minneapolis Center
Sun 10:51:37 AM 43.9292 -85.4228 132° Southeast 177 204 9,000  Level Minneapolis Center
Sun 10:52:51 AM 43.8850 -85.3458 129° Southeast 180 207 9,000 -44 Level Minneapolis Center
Sun 10:53:53 AM 43.8536 -85.2900 128° Southeast 182 209 8,900  Descending Minneapolis Center
Sun 10:54:55 AM 43.8214 -85.2369 130° Southeast 181 208 9,000  Climbing Minneapolis Center
Sun 10:56:10 AM 43.7894 -85.1822 129° Southeast 182 209 8,900  Descending Minneapolis Center
Sun 10:57:12 AM 43.7497 -85.1208 132° Southeast 180 207 9,000 48 Climbing Minneapolis Center
Sun 10:58:14 AM 43.7153 -85.0706 133° Southeast 179 206 9,000 -48 Level Minneapolis Center
Sun 10:59:16 AM 43.6756 -85.0067 131° Southeast 182 209 8,900 -48 Descending Minneapolis Center
Sun 11:00:18 AM 43.6456 -84.9506 126° Southeast 182 209 8,900 48 Level Minneapolis Center
Sun 11:01:20 AM 43.6131 -84.8986 131° Southeast 180 207 9,000 48 Climbing Minneapolis Center
Sun 11:02:22 AM 43.5792 -84.8475 132° Southeast 180 207 9,000  Level Minneapolis Center
Sun 11:03:24 AM 43.5461 -84.7964 132° Southeast 180 207 9,000  Level Minneapolis Center
Sun 11:04:26 AM 43.5153 -84.7425 128° Southeast 179 206 9,000  Level Minneapolis Center
Sun 11:05:28 AM 43.4778 -84.6797 129° Southeast 178 205 9,000  Level Minneapolis Center
Sun 11:06:30 AM 43.4472 -84.6275 129° Southeast 176 203 9,000  Level Minneapolis Center
Sun 11:07:32 AM 43.4153 -84.5758 130° Southeast 177 204 9,000  Level Minneapolis Center
Sun 11:08:34 AM 43.3822 -84.5247 132° Southeast 178 205 9,000  Level Minneapolis Center
Sun 11:09:36 AM 43.3481 -84.4750 133° Southeast 179 206 9,000 -311 Level Minneapolis Center
Sun 11:21:06 AM 42.9594 -83.8686 131° Southeast 176 203 5,100 -328 Descending Cleveland Center
Sun 11:22:07 AM 42.9253 -83.8214 135° Southeast 171 197 4,900 -98 Descending Cleveland Center
Sun 11:23:08 AM 42.8933 -83.7714 131° Southeast 165 190 4,900 47 Level Cleveland Center
Sun 11:24:15 AM 42.8436 -83.7661 176° South 159 183 5,000  Climbing Cleveland Center
Sun 11:25:16 AM 42.8219 -83.7111 118° Southeast 166 191 4,900 -148 Descending Cleveland Center
Sun 11:26:17 AM 42.8178 -83.6431 95° East 170 196 4,700 -393 Descending Cleveland Center
Sun 11:27:18 AM 42.8131 -83.5778 96° East 175 201 4,100 -590 Descending Cleveland Center
Sun 11:28:19 AM 42.8064 -83.5122 98° East 170 196 3,500 -563 Descending Cleveland Center
Sun 11:29:26 AM 42.7850 -83.4519 116° Southeast 160 184 2,900 -422 Descending Cleveland Center
Sun 11:30:27 AM 42.7525 -83.4136 139° Southeast 153 176 2,600 -446 Descending Cleveland Center
Sun 11:31:27 AM 42.7131 -83.4089 175° South 124 143 2,000 -545 Descending Cleveland Center
Sun 11:32:28 AM 42.6844 -83.3936 159° South 110 127 1,500 -492 Descending Cleveland Center

Login

Don't have an account? Register now (free) for customized features, flight alerts, and more!